Time;durP1;ratioP1;P1;durP2;ratioP2;P2;SDS_P1;SDS_P2;PMS_P1;PMS_P2;Temp;Humidity;BMP_temperature;BMP_pressure;BME280_temperature;BME280_humidity;BME280_pressure;Samples;Min_cycle;Max_cycle;Signal;HPM_P1;HPM_P2
2022/04/09 00:02:21;;;;;;;1.77;0.80;;;;;;;;;;5026096;28;20195;-82
2022/04/09 00:04:48;;;;;;;0.70;0.50;;;10.70;99.90;;;;;;5023487;28;20179;-84
2022/04/09 00:07:14;;;;;;;0.50;0.50;;;10.40;99.90;;;;;;5025149;28;20187;-84
2022/04/09 00:09:40;;;;;;;1.03;0.60;;;10.20;99.90;;;;;;5024112;28;20198;-84
2022/04/09 00:12:06;;;;;;;0.67;0.53;;;9.90;99.90;;;;;;5022022;28;20206;-83
2022/04/09 00:14:32;;;;;;;2.53;0.70;;;;;;;;;;5021933;28;20209;-81
2022/04/09 00:16:58;;;;;;;2.30;0.63;;;;;;;;;;5023185;28;20179;-84
2022/04/09 00:19:24;;;;;;;0.93;0.80;;;;;;;;;;5021539;28;20202;-84
2022/04/09 00:21:50;;;;;;;2.17;1.10;;;9.10;99.90;;;;;;5023544;28;20203;-82
2022/04/09 00:24:16;;;;;;;1.57;0.70;;;9.00;99.90;;;;;;5021636;28;20188;-83
2022/04/09 00:26:42;;;;;;;2.87;0.87;;;;;;;;;;5022786;28;20182;-83
2022/04/09 00:29:08;;;;;;;0.60;0.50;;;8.80;99.90;;;;;;5020650;28;20214;-81
2022/04/09 00:31:34;;;;;;;1.10;0.53;;;8.40;99.90;;;;;;5020164;28;20574;-83
2022/04/09 00:34:00;;;;;;;0.40;0.40;;;8.40;99.90;;;;;;5022042;28;20260;-84
2022/04/09 00:36:26;;;;;;;0.73;0.73;;;8.10;99.90;;;;;;5021756;28;20198;-82
2022/04/09 00:38:51;;;;;;;0.87;0.70;;;7.90;99.90;;;;;;5022362;28;20200;-83
2022/04/09 00:41:18;;;;;;;1.90;0.70;;;7.90;99.90;;;;;;5024143;28;20171;-82
2022/04/09 00:43:44;;;;;;;1.60;0.77;;;7.90;99.90;;;;;;5023334;28;20180;-81
2022/04/09 00:46:14;;;;;;;1.10;0.70;;;7.90;99.90;;;;;;5022917;28;20313;-84
2022/04/09 00:48:42;;;;;;;1.27;1.17;;;8.00;99.90;;;;;;5020714;28;20202;-83
2022/04/09 00:51:08;;;;;;;0.70;0.70;;;8.10;99.90;;;;;;5020679;28;20217;-84
2022/04/09 00:53:36;;;;;;;4.80;1.20;;;8.20;99.90;;;;;;5021477;28;20238;-83
2022/04/09 00:56:21;;;;;;;1.17;0.60;;;8.20;99.90;;;;;;5021042;28;20179;-84
2022/04/09 00:58:56;;;;;;;2.37;0.80;;;8.40;99.90;;;;;;5019877;28;20202;-83
2022/04/09 01:01:34;;;;;;;1.00;0.90;;;8.40;99.90;;;;;;5020912;28;20178;-85
2022/04/09 01:04:04;;;;;;;1.77;0.60;;;8.30;99.90;;;;;;5022015;28;20151;-84
2022/04/09 01:06:32;;;;;;;1.10;0.70;;;8.30;99.90;;;;;;5021852;28;20175;-83
2022/04/09 01:08:58;;;;;;;2.27;0.50;;;8.30;99.90;;;;;;5019769;28;20199;-84
2022/04/09 01:11:24;;;;;;;3.00;0.70;;;;;;;;;;5022846;28;20175;-83
2022/04/09 01:13:51;;;;;;;2.40;0.60;;;8.30;99.90;;;;;;5016995;28;20539;-82
2022/04/09 01:16:16;;;;;;;0.77;0.30;;;6.10;99.90;;;;;;5017695;28;20641;-82
2022/04/09 01:18:42;;;;;;;0.50;0.50;;;5.50;99.90;;;;;;5017647;28;20201;-82
2022/04/09 01:21:08;;;;;;;2.43;0.77;;;5.30;99.90;;;;;;5015687;28;20186;-83
2022/04/09 01:23:34;;;;;;;0.40;0.40;;;4.90;99.90;;;;;;5017025;28;20178;-83
2022/04/09 01:26:02;;;;;;;0.80;0.80;;;4.70;99.90;;;;;;5021320;28;20179;-83
2022/04/09 01:28:28;;;;;;;0.40;0.40;;;;;;;;;;5023396;28;20538;-83
2022/04/09 01:30:54;;;;;;;0.60;0.60;;;;;;;;;;5022123;28;20417;-83
2022/04/09 01:33:22;;;;;;;0.60;0.60;;;4.30;99.90;;;;;;5021575;28;20477;-83
2022/04/09 01:35:48;;;;;;;0.60;0.60;;;4.60;99.90;;;;;;5020390;28;20175;-83
2022/04/09 01:38:14;;;;;;;0.80;0.80;;;3.90;99.90;;;;;;5019814;28;20936;-84
2022/04/09 01:40:41;;;;;;;0.63;0.63;;;;;;;;;;5020152;28;20430;-83
2022/04/09 01:43:07;;;;;;;0.87;0.87;;;;;;;;;;5023796;28;20413;-83
2022/04/09 01:45:33;;;;;;;0.70;0.70;;;;;;;;;;5035820;28;20417;-82
2022/04/09 01:48:00;;;;;;;0.70;0.70;;;;;;;;;;5033243;28;20457;-83
2022/04/09 01:50:26;;;;;;;0.60;0.60;;;3.50;99.90;;;;;;5021797;28;20517;-82
2022/04/09 01:52:52;;;;;;;0.70;0.70;;;3.20;99.90;;;;;;5022120;28;20465;-81
2022/04/09 01:55:19;;;;;;;0.70;0.70;;;;;;;;;;5023035;28;20418;-82
2022/04/09 01:57:46;;;;;;;0.70;0.67;;;2.30;99.90;;;;;;5023972;28;20418;-81
2022/04/09 02:00:13;;;;;;;0.60;0.60;;;2.20;99.90;;;;;;5022870;28;20540;-82
2022/04/09 02:02:39;;;;;;;0.70;0.70;;;;;;;;;;5023404;28;20927;-81
2022/04/09 02:05:06;;;;;;;0.60;0.60;;;1.60;99.90;;;;;;5022020;28;20413;-82
2022/04/09 02:07:32;;;;;;;0.70;0.70;;;;;;;;;;5023329;28;20413;-82
2022/04/09 02:09:58;;;;;;;0.70;0.70;;;;;;;;;;5020993;28;20467;-82
2022/04/09 02:12:24;;;;;;;0.63;0.63;;;;;;;;;;5021351;28;20473;-82
2022/04/09 02:14:50;;;;;;;0.80;0.80;;;;;;;;;;5021216;28;20414;-82
2022/04/09 02:17:16;;;;;;;1.03;1.00;;;;;;;;;;5020691;28;20414;-81
2022/04/09 02:19:42;;;;;;;0.97;0.97;;;;;;;;;;5020372;28;20940;-82
2022/04/09 02:22:08;;;;;;;0.97;0.97;;;;;;;;;;5020251;28;20510;-81
2022/04/09 02:24:34;;;;;;;0.87;0.87;;;1.10;99.90;;;;;;5021850;28;20892;-82
2022/04/09 02:26:59;;;;;;;1.20;1.10;;;1.20;99.90;;;;;;5020064;28;20425;-80
2022/04/09 02:29:25;;;;;;;0.90;0.90;;;1.10;99.90;;;;;;5020952;28;20194;-81
2022/04/09 02:31:51;;;;;;;0.80;0.80;;;;;;;;;;5019080;28;20206;-81
2022/04/09 02:34:17;;;;;;;0.77;0.77;;;1.20;99.90;;;;;;5020128;28;20262;-81
2022/04/09 02:36:43;;;;;;;0.90;0.90;;;;;;;;;;5018609;28;20531;-81
2022/04/09 02:39:10;;;;;;;0.83;0.83;;;;;;;;;;5020258;28;20198;-81
2022/04/09 02:41:36;;;;;;;0.80;0.80;;;;;;;;;;5019124;28;20892;-81
2022/04/09 02:44:02;;;;;;;0.87;0.87;;;;;;;;;;5017663;28;20471;-81
2022/04/09 02:46:28;;;;;;;0.93;0.93;;;;;;;;;;5019195;28;20410;-80
2022/04/09 02:48:54;;;;;;;0.80;0.80;;;;;;;;;;5018703;28;20512;-81
2022/04/09 02:51:20;;;;;;;0.63;0.63;;;;;;;;;;5017809;28;20409;-80
2022/04/09 02:53:46;;;;;;;0.60;0.60;;;1.00;99.90;;;;;;5018367;28;20413;-80
2022/04/09 02:56:12;;;;;;;0.67;0.67;;;1.20;99.90;;;;;;5017281;28;20521;-80
2022/04/09 02:58:37;;;;;;;0.70;0.70;;;1.00;99.90;;;;;;5018951;28;20195;-80
2022/04/09 03:01:03;;;;;;;0.80;0.80;;;;;;;;;;5018456;28;20648;-80
2022/04/09 03:03:29;;;;;;;0.70;0.70;;;;;;;;;;5017039;28;20194;-80
2022/04/09 03:05:55;;;;;;;0.70;0.70;;;1.00;99.90;;;;;;5018574;28;20409;-79
2022/04/09 03:08:21;;;;;;;0.70;0.70;;;;;;;;;;5018756;28;20553;-80
2022/04/09 03:10:47;;;;;;;0.80;0.80;;;;;;;;;;5017261;28;20197;-80
2022/04/09 03:13:13;;;;;;;0.90;0.90;;;;;;;;;;5016879;28;20552;-79
2022/04/09 03:15:41;;;;;;;0.90;0.90;;;;;;;;;;5017441;28;20417;-79
2022/04/09 03:18:10;;;;;;;2.00;1.00;;;;;;;;;;5018200;28;20410;-79
2022/04/09 03:20:37;;;;;;;0.93;0.93;;;;;;;;;;5018878;28;20456;-79
2022/04/09 03:23:03;;;;;;;0.87;0.87;;;;;;;;;;5018646;28;20409;-79
2022/04/09 03:25:29;;;;;;;0.90;0.90;;;;;;;;;;5019150;28;20807;-79
2022/04/09 03:27:55;;;;;;;1.20;1.20;;;;;;;;;;5017428;28;20433;-79
2022/04/09 03:30:21;;;;;;;0.90;0.90;;;;;;;;;;5016027;28;20509;-80
2022/04/09 03:32:47;;;;;;;1.27;1.23;;;;;;;;;;5018377;28;20483;-79
2022/04/09 03:35:13;;;;;;;1.30;1.20;;;;;;;;;;5017648;28;20509;-79
2022/04/09 03:37:40;;;;;;;1.10;1.10;;;1.10;99.90;;;;;;5016651;28;20429;-79
2022/04/09 03:40:07;;;;;;;1.30;1.20;;;1.10;99.90;;;;;;5016649;28;20449;-79
2022/04/09 03:42:33;;;;;;;1.50;1.40;;;;;;;;;;5017930;28;20413;-79
2022/04/09 03:45:00;;;;;;;1.53;1.40;;;;;;;;;;5017772;28;20903;-79
2022/04/09 03:47:26;;;;;;;1.50;1.40;;;;;;;;;;5018283;28;20422;-79
2022/04/09 03:49:51;;;;;;;1.57;1.47;;;1.10;99.90;;;;;;5018184;28;20425;-79
2022/04/09 03:52:17;;;;;;;1.00;1.00;;;;;;;;;;5017020;28;20210;-79
2022/04/09 03:54:43;;;;;;;1.13;1.03;;;0.90;99.90;;;;;;5018184;28;20202;-78
2022/04/09 03:57:09;;;;;;;1.70;1.60;;;;;;;;;;5019535;28;20224;-79
2022/04/09 03:59:35;;;;;;;1.63;1.53;;;;;;;;;;5020351;28;20224;-79
2022/04/09 04:02:01;;;;;;;1.53;1.43;;;;;;;;;;5019906;28;20525;-79
2022/04/09 04:04:27;;;;;;;1.90;1.80;;;;;;;;;;5017868;28;20425;-79
2022/04/09 04:06:53;;;;;;;1.50;1.40;;;1.00;99.90;;;;;;5019912;28;20410;-78
2022/04/09 04:09:19;;;;;;;2.37;2.17;;;;;;;;;;5020232;28;20201;-79
2022/04/09 04:11:45;;;;;;;1.63;1.53;;;1.00;99.90;;;;;;5019815;28;20199;-79
2022/04/09 04:14:12;;;;;;;1.43;1.33;;;;;;;;;;5019752;28;20539;-79
2022/04/09 04:16:38;;;;;;;1.53;1.43;;;;;;;;;;5019999;28;20195;-79
2022/04/09 04:19:04;;;;;;;1.70;1.60;;;;;;;;;;5019617;28;20438;-79
2022/04/09 04:21:30;;;;;;;1.97;1.70;;;;;;;;;;5020292;28;20410;-79
2022/04/09 04:23:56;;;;;;;4.33;2.20;;;;;;;;;;5019080;28;20402;-78
2022/04/09 04:26:22;;;;;;;2.20;1.97;;;;;;;;;;5021884;28;20409;-79
2022/04/09 04:28:48;;;;;;;1.73;1.63;;;;;;;;;;5018619;28;20465;-78
2022/04/09 04:31:18;;;;;;;2.20;2.00;;;1.00;99.90;;;;;;5015681;28;20406;-78
2022/04/09 04:33:44;;;;;;;2.50;2.10;;;;;;;;;;5018965;28;20453;-78
2022/04/09 04:36:11;;;;;;;1.90;1.80;;;;;;;;;;5020133;28;20437;-78
2022/04/09 04:38:37;;;;;;;2.03;1.80;;;;;;;;;;5021111;28;20445;-77
2022/04/09 04:41:04;;;;;;;1.90;1.80;;;;;;;;;;5021333;28;20962;-78
2022/04/09 04:43:31;;;;;;;2.13;1.93;;;;;;;;;;5020438;28;20504;-78
2022/04/09 04:45:57;;;;;;;1.73;1.63;;;;;;;;;;5021930;28;20467;-78
2022/04/09 04:48:23;;;;;;;2.83;2.43;;;;;;;;;;5022107;28;20480;-79
2022/04/09 04:50:49;;;;;;;2.83;2.63;;;;;;;;;;5022279;28;20418;-79
2022/04/09 04:53:15;;;;;;;2.40;2.20;;;;;;;;;;5020929;28;20460;-79
2022/04/09 04:55:41;;;;;;;2.13;1.93;;;;;;;;;;5023156;28;20477;-78
2022/04/09 04:58:07;;;;;;;2.50;2.30;;;1.00;99.90;;;;;;5021242;28;20480;-79
2022/04/09 05:00:33;;;;;;;2.17;2.00;;;;;;;;;;5021533;28;20293;-79
2022/04/09 05:02:59;;;;;;;3.10;2.70;;;;;;;;;;5022906;28;20542;-79
2022/04/09 05:05:26;;;;;;;2.43;2.23;;;;;;;;;;5021940;28;20426;-79
2022/04/09 05:07:53;;;;;;;2.23;2.00;;;0.90;99.90;;;;;;5019953;28;20417;-79
2022/04/09 05:10:21;;;;;;;2.80;2.60;;;0.80;99.90;;;;;;5019864;28;20933;-79
2022/04/09 05:12:48;;;;;;;2.53;2.27;;;0.90;99.90;;;;;;5019495;28;21193;-79
2022/04/09 05:15:15;;;;;;;3.37;3.07;;;0.90;99.90;;;;;;5020234;28;20417;-79
2022/04/09 05:17:41;;;;;;;3.67;2.90;;;;;;;;;;5019920;28;20453;-79
2022/04/09 05:20:10;;;;;;;2.77;2.57;;;0.80;99.90;;;;;;5021120;28;20488;-79
2022/04/09 05:22:43;;;;;;;3.40;2.90;;;;;;;;;;5020515;28;20413;-79
2022/04/09 05:25:10;;;;;;;6.57;3.50;;;0.90;99.90;;;;;;5020726;28;20421;-80
2022/04/09 05:27:37;;;;;;;2.93;2.67;;;;;;;;;;5022509;28;20425;-79
2022/04/09 05:30:04;;;;;;;3.77;3.13;;;0.90;99.90;;;;;;5020085;28;20442;-79
2022/04/09 05:32:29;;;;;;;4.50;3.40;;;1.00;99.90;;;;;;5020823;28;20810;-80
2022/04/09 05:34:56;;;;;;;3.47;3.10;;;1.00;99.90;;;;;;5020270;28;20422;-79
2022/04/09 05:37:22;;;;;;;4.00;3.60;;;1.00;99.90;;;;;;5019966;28;20308;-79
2022/04/09 05:39:48;;;;;;;3.53;3.23;;;;;;;;;;5020231;28;20952;-79
2022/04/09 05:42:14;;;;;;;4.27;3.87;;;;;;;;;;5021622;28;20182;-79
2022/04/09 05:44:40;;;;;;;4.20;3.83;;;;;;;;;;5020534;28;20951;-80
2022/04/09 05:47:06;;;;;;;5.30;3.90;;;0.80;99.90;;;;;;5020748;28;20414;-79
2022/04/09 05:49:32;;;;;;;5.50;3.97;;;;;;;;;;5020809;28;20199;-79
2022/04/09 05:51:58;;;;;;;4.17;3.40;;;;;;;;;;5020459;28;20206;-80
2022/04/09 05:54:24;;;;;;;4.13;3.73;;;;;;;;;;5020984;28;20407;-79
2022/04/09 05:56:51;;;;;;;5.07;4.50;;;;;;;;;;5019906;28;20410;-79
2022/04/09 05:59:17;;;;;;;4.47;3.83;;;1.00;99.90;;;;;;5019631;28;20462;-78
2022/04/09 06:01:44;;;;;;;5.20;4.70;;;;;;;;;;5017097;28;20418;-80
2022/04/09 06:04:10;;;;;;;3.97;3.57;;;;;;;;;;5020283;28;20441;-80
2022/04/09 06:06:37;;;;;;;4.50;3.90;;;;;;;;;;5021212;28;20418;-79
2022/04/09 06:09:03;;;;;;;7.53;4.47;;;1.10;99.90;;;;;;5020054;28;20435;-79
2022/04/09 06:11:30;;;;;;;4.93;4.43;;;1.30;99.90;;;;;;5020274;28;20417;-79
2022/04/09 06:13:55;;;;;;;4.60;4.20;;;1.10;99.90;;;;;;5020378;28;20994;-79
2022/04/09 06:16:22;;;;;;;5.90;5.30;;;;;;;;;;5021111;28;20441;-79
2022/04/09 06:18:48;;;;;;;5.83;5.07;;;;;;;;;;5021787;28;20191;-79
2022/04/09 06:21:14;;;;;;;6.03;5.13;;;;;;;;;;5022360;28;20413;-80
2022/04/09 06:23:40;;;;;;;5.03;4.30;;;;;;;;;;5020107;28;20421;-80
2022/04/09 06:26:07;;;;;;;4.30;3.90;;;1.30;99.90;;;;;;5021326;28;20418;-80
2022/04/09 06:28:34;;;;;;;5.10;4.60;;;;;;;;;;5022894;28;20515;-80
2022/04/09 06:31:00;;;;;;;3.07;2.47;;;;;;;;;;5022301;28;20418;-80
2022/04/09 06:33:26;;;;;;;4.77;4.37;;;;;;;;;;5020740;28;20959;-80
2022/04/09 06:35:52;;;;;;;5.80;4.43;;;;;;;;;;5019157;28;20420;-81
2022/04/09 06:38:18;;;;;;;3.87;3.43;;;1.30;99.90;;;;;;5016177;28;20445;-81
2022/04/09 06:40:44;;;;;;;4.63;3.60;;;1.30;99.90;;;;;;5016781;28;20943;-79
2022/04/09 06:43:10;;;;;;;4.00;3.43;;;;;;;;;;5019300;28;20198;-80
2022/04/09 06:45:35;;;;;;;4.50;3.97;;;1.30;99.90;;;;;;5020606;28;20179;-81
2022/04/09 06:48:03;;;;;;;8.30;6.03;;;;;;;;;;5022285;28;20680;-81
2022/04/09 06:50:29;;;;;;;4.77;4.37;;;;;;;;;;5023514;28;20429;-82
2022/04/09 06:52:55;;;;;;;3.60;3.30;;;;;;;;;;5018719;28;20851;-81
2022/04/09 06:55:21;;;;;;;3.07;2.80;;;;;;;;;;5017279;28;20417;-80
2022/04/09 06:57:47;;;;;;;4.17;3.57;;;1.40;99.90;;;;;;5017042;28;20641;-81
2022/04/09 07:00:17;;;;;;;5.30;3.60;;;1.50;99.90;;;;;;5017896;28;20280;-81
2022/04/09 07:02:43;;;;;;;6.97;5.20;;;;;;;;;;5017483;28;20175;-81
2022/04/09 07:05:09;;;;;;;4.27;3.77;;;1.60;99.90;;;;;;5016661;28;20758;-82
2022/04/09 07:07:35;;;;;;;4.03;3.47;;;;;;;;;;5017285;28;20715;-81
2022/04/09 07:10:09;;;;;;;5.20;4.30;;;2.00;99.90;;;;;;5016435;28;21002;-82
2022/04/09 07:12:36;;;;;;;4.57;3.80;;;;;;;;;;5017185;28;20981;-82
2022/04/09 07:15:02;;;;;;;8.57;3.60;;;;;;;;;;5015950;28;20932;-81
2022/04/09 07:17:29;;;;;;;3.80;3.40;;;2.00;99.90;;;;;;5016917;28;20409;-82
2022/04/09 07:20:03;;;;;;;4.60;3.80;;;1.90;99.90;;;;;;5015271;28;20253;-83
2022/04/09 07:22:29;;;;;;;4.10;3.47;;;2.00;99.90;;;;;;5015627;28;20436;-81
2022/04/09 07:24:58;;;;;;;7.63;6.03;;;;;;;;;;5016127;28;20175;-81
2022/04/09 07:27:38;;;;;;;8.03;3.87;;;1.90;99.90;;;;;;5016033;28;20183;-81
2022/04/09 07:30:06;;;;;;;29.93;13.37;;;1.90;99.90;;;;;;5014971;28;20525;-81
2022/04/09 07:32:31;;;;;;;36.03;18.07;;;1.90;99.90;;;;;;5014520;28;20453;-81
2022/04/09 07:34:57;;;;;;;20.77;12.43;;;;;;;;;;5016420;28;20317;-81
2022/04/09 07:37:23;;;;;;;7.17;5.33;;;1.80;99.90;;;;;;5019008;28;20194;-81
2022/04/09 07:39:49;;;;;;;5.20;4.70;;;;;;;;;;5018434;28;20548;-81
2022/04/09 07:42:15;;;;;;;8.80;5.63;;;;;;;;;;5020296;28;20261;-81
2022/04/09 07:44:41;;;;;;;7.47;6.27;;;1.70;99.90;;;;;;5019518;28;20424;-81
2022/04/09 07:47:07;;;;;;;10.57;7.67;;;;;;;;;;5020545;28;20414;-81
2022/04/09 07:49:33;;;;;;;12.83;7.30;;;;;;;;;;5018780;28;20538;-82
2022/04/09 07:51:59;;;;;;;8.27;6.70;;;2.00;99.90;;;;;;5020251;28;20472;-82
2022/04/09 07:54:24;;;;;;;9.80;7.33;;;2.20;99.90;;;;;;5019042;28;20185;-83
2022/04/09 07:56:50;;;;;;;9.90;8.10;;;2.10;99.90;;;;;;5020257;28;20266;-83
2022/04/09 07:59:16;;;;;;;12.30;8.33;;;;;;;;;;5023164;28;20195;-82
2022/04/09 08:01:42;;;;;;;7.77;6.80;;;2.30;99.90;;;;;;5024088;28;20170;-83
2022/04/09 08:04:08;;;;;;;12.47;7.73;;;2.30;99.90;;;;;;5022485;28;20185;-83
2022/04/09 08:06:34;;;;;;;14.97;9.17;;;;;;;;;;5022062;28;20175;-83
2022/04/09 08:08:59;;;;;;;6.03;5.37;;;2.30;99.90;;;;;;5024518;28;20684;-83
2022/04/09 08:11:26;;;;;;;6.67;5.97;;;2.40;99.90;;;;;;5023958;28;20175;-83
2022/04/09 08:13:51;;;;;;;7.23;6.00;;;2.50;99.90;;;;;;5024420;28;20570;-83
2022/04/09 08:16:17;;;;;;;9.97;7.20;;;2.40;99.90;;;;;;5026049;28;20261;-82
2022/04/09 08:18:43;;;;;;;8.00;7.20;;;;;;;;;;5026368;28;20239;-83
2022/04/09 08:21:09;;;;;;;9.40;7.97;;;2.40;99.90;;;;;;5024953;28;20183;-83
2022/04/09 08:23:34;;;;;;;6.30;5.17;;;2.60;99.90;;;;;;5025455;28;20418;-83
2022/04/09 08:26:01;;;;;;;8.10;6.17;;;2.60;99.90;;;;;;5022535;28;20174;-83
2022/04/09 08:28:30;;;;;;;6.50;5.73;;;;;;;;;;5021932;28;20189;-83
2022/04/09 08:30:56;;;;;;;6.63;5.53;;;2.60;99.90;;;;;;5021087;28;20781;-83
2022/04/09 08:33:22;;;;;;;7.67;6.23;;;;;;;;;;5019623;28;20450;-83
2022/04/09 08:35:48;;;;;;;8.33;6.40;;;2.80;99.90;;;;;;5021134;28;20825;-83
2022/04/09 08:38:14;;;;;;;7.13;6.43;;;;;;;;;;5023236;28;20195;-83
2022/04/09 08:40:40;;;;;;;12.33;7.57;;;3.40;99.90;;;;;;5021416;28;20225;-83
2022/04/09 08:43:08;;;;;;;8.13;6.83;;;3.60;99.90;;;;;;5021237;28;20437;-83
2022/04/09 08:45:40;;;;;;;6.47;5.77;;;4.40;99.90;;;;;;5021553;28;20194;-84
2022/04/09 08:48:07;;;;;;;7.43;6.27;;;4.70;99.90;;;;;;5023621;28;20172;-84
2022/04/09 08:50:35;;;;;;;6.50;5.90;;;5.00;99.90;;;;;;5021819;28;20203;-84
2022/04/09 08:53:06;;;;;;;6.73;6.10;;;5.20;99.90;;;;;;5021126;28;20208;-84
2022/04/09 08:55:34;;;;;;;7.80;6.00;;;5.20;99.90;;;;;;5021105;28;20184;-83
2022/04/09 08:57:59;;;;;;;6.03;5.40;;;4.60;99.90;;;;;;5021751;28;20681;-84
2022/04/09 09:00:25;;;;;;;5.20;4.70;;;;;;;;;;5021331;28;20201;-84
2022/04/09 09:02:57;;;;;;;6.57;5.30;;;3.50;99.90;;;;;;5023036;28;20180;-84
2022/04/09 09:05:37;;;;;;;7.70;6.67;;;3.20;99.90;;;;;;5022508;28;20180;-83
2022/04/09 09:08:04;;;;;;;7.90;5.97;;;3.20;99.90;;;;;;5020831;28;20179;-83
2022/04/09 09:10:31;;;;;;;8.10;6.43;;;3.20;99.90;;;;;;5023083;28;20200;-83
2022/04/09 09:12:59;;;;;;;9.83;6.53;;;3.20;99.90;;;;;;5021468;28;20210;-83
2022/04/09 09:15:25;;;;;;;8.10;5.47;;;3.20;99.90;;;;;;5021095;28;20179;-83
2022/04/09 09:17:58;;;;;;;5.87;4.63;;;3.20;99.90;;;;;;5021784;28;20589;-83
2022/04/09 09:20:24;;;;;;;9.80;5.77;;;3.30;99.90;;;;;;5022622;28;20202;-83
2022/04/09 09:22:51;;;;;;;6.90;5.87;;;3.40;99.90;;;;;;5020215;28;20183;-83
2022/04/09 09:25:17;;;;;;;8.27;5.20;;;4.30;99.90;;;;;;5020940;28;20181;-83
2022/04/09 09:27:43;;;;;;;6.43;4.93;;;;;;;;;;5021473;28;20266;-82
2022/04/09 09:30:13;;;;;;;6.60;4.73;;;4.60;99.90;;;;;;5020066;28;20676;-82
2022/04/09 09:32:41;;;;;;;5.47;4.77;;;5.00;99.90;;;;;;5020969;28;20205;-83
2022/04/09 09:35:09;;;;;;;8.70;5.37;;;5.00;99.90;;;;;;5020055;28;20231;-82
2022/04/09 09:37:35;;;;;;;6.37;4.43;;;5.50;99.90;;;;;;5019949;28;20255;-82
2022/04/09 09:40:00;;;;;;;7.13;5.50;;;5.90;99.90;;;;;;5022107;28;20192;-82
2022/04/09 09:42:26;;;;;;;4.63;3.97;;;6.40;99.90;;;;;;5022229;28;20590;-83
2022/04/09 09:44:52;;;;;;;4.67;4.27;;;6.70;99.90;;;;;;5024037;28;20183;-83
2022/04/09 09:47:19;;;;;;;5.70;4.50;;;6.80;99.90;;;;;;5023787;28;20637;-82
2022/04/09 09:49:58;;;;;;;4.10;3.43;;;7.10;99.90;;;;;;5023223;28;20194;-83
2022/04/09 09:52:31;;;;;;;4.27;3.73;;;7.10;99.90;;;;;;5023326;28;20265;-84
2022/04/09 09:55:02;;;;;;;5.10;3.53;;;7.20;99.90;;;;;;5026170;28;20270;-82
2022/04/09 09:57:32;;;;;;;3.60;2.87;;;7.70;99.90;;;;;;5029978;28;20266;-83
2022/04/09 10:00:02;;;;;;;6.23;3.00;;;7.40;99.90;;;;;;5029603;28;20191;-82
2022/04/09 10:02:27;;;;;;;5.33;3.10;;;7.20;99.90;;;;;;5021654;28;20195;-81
2022/04/09 10:04:54;;;;;;;3.50;3.20;;;7.70;99.90;;;;;;5019788;28;20186;-82
2022/04/09 10:07:22;;;;;;;4.17;3.50;;;7.90;99.90;;;;;;5017876;28;20207;-82
2022/04/09 10:09:50;;;;;;;5.80;3.50;;;7.90;99.90;;;;;;5019896;28;20202;-82
2022/04/09 10:12:24;;;;;;;4.40;3.63;;;8.10;99.90;;;;;;5017499;28;20245;-82
2022/04/09 10:14:59;;;;;;;5.30;2.93;;;8.20;99.90;;;;;;5018024;28;20178;-82
2022/04/09 10:17:28;;;;;;;6.00;3.53;;;8.30;99.90;;;;;;5017916;28;20190;-83
2022/04/09 10:19:58;;;;;;;5.50;3.70;;;7.20;99.90;;;;;;5017931;28;20199;-83
2022/04/09 10:22:30;;;;;;;4.40;3.20;;;7.00;99.90;;;;;;5018849;28;20178;-84
2022/04/09 10:24:58;;;;;;;3.80;2.80;;;7.60;99.90;;;;;;5017277;28;20187;-83
2022/04/09 10:27:41;;;;;;;4.53;3.57;;;8.40;99.90;;;;;;5017831;28;20531;-83
2022/04/09 10:30:13;;;;;;;3.57;2.87;;;8.80;99.90;;;;;;5017727;28;20323;-83
2022/04/09 10:32:51;;;;;;;2.67;2.10;;;8.70;99.90;;;;;;5015945;28;20664;-83
2022/04/09 10:35:40;;;;;;;3.70;2.20;;;8.70;99.90;;;;;;5014375;28;20240;-83
2022/04/09 10:38:12;;;;;;;3.33;2.10;;;8.70;99.90;;;;;;5015233;28;20187;-82
2022/04/09 10:40:50;;;;;;;2.87;2.37;;;8.60;99.90;;;;;;5015749;28;20293;-82
2022/04/09 10:43:25;;;;;;;2.63;2.43;;;7.90;99.90;;;;;;5019192;28;20245;-82
2022/04/09 10:46:06;;;;;;;2.93;2.30;;;6.90;99.90;;;;;;5019316;28;20552;-82
2022/04/09 10:48:31;;;;;;;3.53;2.13;;;6.30;99.90;;;;;;5018569;28;20656;-82
2022/04/09 10:51:04;;;;;;;2.03;1.80;;;6.40;99.90;;;;;;5018935;28;20179;-82
2022/04/09 10:53:35;;;;;;;2.67;2.20;;;7.20;99.90;;;;;;5017242;28;20202;-82
2022/04/09 10:56:26;;;;;;;4.27;2.43;;;8.10;99.90;;;;;;5019970;28;20159;-83
2022/04/09 10:59:16;;;;;;;2.53;2.33;;;9.00;99.90;;;;;;5018254;28;20198;-83
2022/04/09 11:01:48;;;;;;;2.70;2.30;;;9.00;99.90;;;;;;5019078;28;20221;-83
2022/04/09 11:04:34;;;;;;;4.20;2.17;;;8.20;99.90;;;;;;5019404;28;20174;-83
2022/04/09 11:07:23;;;;;;;2.70;2.17;;;7.50;99.90;;;;;;5020224;28;20163;-82
2022/04/09 11:09:58;;;;;;;2.60;2.00;;;5.60;99.90;;;;;;5022350;28;20194;-83
2022/04/09 11:12:41;;;;;;;3.13;2.37;;;5.30;99.90;;;;;;5023011;28;20204;-83
2022/04/09 11:15:09;;;;;;;3.77;2.50;;;5.90;99.90;;;;;;5022277;28;20572;-83
2022/04/09 11:17:37;;;;;;;4.17;2.30;;;6.40;99.90;;;;;;5022485;28;20679;-82
2022/04/09 11:20:11;;;;;;;3.27;2.13;;;7.60;99.90;;;;;;5021031;28;20195;-82
2022/04/09 11:22:40;;;;;;;2.83;2.50;;;7.60;99.90;;;;;;5020856;28;20175;-83
2022/04/09 11:25:08;;;;;;;2.93;2.00;;;8.70;99.90;;;;;;5021487;28;20186;-82
2022/04/09 11:27:34;;;;;;;3.80;1.90;;;9.60;99.90;;;;;;5022030;28;20197;-83
2022/04/09 11:30:01;;;;;;;2.07;1.67;;;9.50;99.90;;;;;;5020773;28;20201;-82
2022/04/09 11:32:28;;;;;;;5.60;2.10;;;9.40;99.90;;;;;;5021296;28;20561;-82
2022/04/09 11:34:58;;;;;;;3.00;1.83;;;9.50;99.50;;;;;;5020248;28;20190;-83
2022/04/09 11:37:32;;;;;;;3.53;1.90;;;9.90;99.90;;;;;;5020901;28;20195;-83
2022/04/09 11:40:05;;;;;;;2.77;1.93;;;10.50;99.90;;;;;;5020431;28;20245;-83
2022/04/09 11:42:46;;;;;;;2.60;1.93;;;7.90;99.90;;;;;;5021946;28;20186;-84
2022/04/09 11:45:26;;;;;;;3.07;1.87;;;6.30;99.90;;;;;;5023792;28;20189;-83
2022/04/09 11:47:54;;;;;;;2.60;1.73;;;4.50;99.90;;;;;;5028666;28;20228;-83
2022/04/09 11:50:20;;;;;;;2.93;1.40;;;;;;;;;;5027356;28;20205;-83
2022/04/09 11:52:46;;;;;;;3.30;1.60;;;4.40;99.90;;;;;;5027242;28;20265;-83
2022/04/09 11:55:16;;;;;;;1.83;1.50;;;4.50;99.90;;;;;;5026991;28;20183;-83
2022/04/09 11:57:53;;;;;;;1.60;1.50;;;5.70;99.90;;;;;;5027060;28;20174;-83
2022/04/09 12:00:23;;;;;;;2.27;1.80;;;5.70;99.90;;;;;;5027856;28;20233;-83
2022/04/09 12:02:49;;;;;;;3.90;1.90;;;6.00;99.90;;;;;;5026615;28;20204;-83
2022/04/09 12:05:15;;;;;;;3.83;1.57;;;6.90;99.90;;;;;;5026882;28;20182;-82
2022/04/09 12:07:45;;;;;;;2.63;1.73;;;8.60;99.90;;;;;;5029190;28;20175;-82
2022/04/09 12:10:28;;;;;;;2.53;1.60;;;10.60;99.90;;;;;;5027943;28;20191;-83
2022/04/09 12:13:00;;;;;;;3.50;1.93;;;11.50;99.90;;;;;;5026985;28;20215;-83
2022/04/09 12:15:35;;;;;;;2.57;1.67;;;10.30;99.90;;;;;;5026479;28;20664;-83
2022/04/09 12:18:06;;;;;;;9.63;5.53;;;9.50;99.90;;;;;;5028963;28;20170;-83
2022/04/09 12:20:44;;;;;;;1.77;1.20;;;10.00;99.90;;;;;;5029197;28;20249;-83
2022/04/09 12:23:10;;;;;;;2.73;1.40;;;9.80;99.30;;;;;;5026597;28;20185;-83
2022/04/09 12:25:42;;;;;;;3.03;1.20;;;9.20;99.70;;;;;;5025985;28;20182;-83
2022/04/09 12:28:23;;;;;;;2.70;1.20;;;9.40;96.40;;;;;;5025758;28;20189;-82
2022/04/09 12:30:53;;;;;;;2.77;1.90;;;8.50;97.60;;;;;;5025694;28;20269;-82
2022/04/09 12:33:20;;;;;;;3.17;1.67;;;8.20;99.90;;;;;;5025017;28;20194;-82
2022/04/09 12:35:46;;;;;;;3.83;2.17;;;9.20;99.90;;;;;;5026318;28;20167;-82
2022/04/09 12:38:36;;;;;;;2.37;1.47;;;12.20;94.40;;;;;;5025648;28;20195;-82
2022/04/09 12:41:04;;;;;;;3.40;1.40;;;12.30;94.50;;;;;;5026985;28;20159;-82
2022/04/09 12:43:41;;;;;;;2.43;1.23;;;13.30;93.30;;;;;;5025516;28;20265;-83
2022/04/09 12:46:09;;;;;;;3.20;1.67;;;13.70;88.00;;;;;;5025567;28;20178;-83
2022/04/09 12:48:49;;;;;;;4.07;1.70;;;13.40;87.90;;;;;;5026003;28;20175;-83
2022/04/09 12:51:21;;;;;;;3.53;1.70;;;12.50;91.70;;;;;;5025139;28;20233;-84
2022/04/09 12:53:48;;;;;;;3.13;1.40;;;10.80;86.30;;;;;;5025600;28;20201;-83
2022/04/09 12:56:15;;;;;;;1.60;1.00;;;8.90;89.60;;;;;;5024117;28;20181;-83
2022/04/09 12:58:42;;;;;;;2.63;1.30;;;7.00;90.30;;;;;;5024670;28;20589;-83
2022/04/09 13:01:09;;;;;;;1.77;1.30;;;7.00;90.80;;;;;;5023391;28;20186;-82
2022/04/09 13:03:35;;;;;;;2.37;1.23;;;6.70;95.10;;;;;;5022279;28;20179;-82
2022/04/09 13:06:02;;;;;;;2.13;1.20;;;6.70;95.60;;;;;;5028720;28;20536;-83
2022/04/09 13:08:28;;;;;;;2.33;1.63;;;9.20;92.80;;;;;;5026644;28;20230;-83
2022/04/09 13:10:54;;;;;;;2.10;1.10;;;9.20;92.90;;;;;;5025677;28;20245;-84
2022/04/09 13:13:20;;;;;;;2.47;1.60;;;8.70;93.10;;;;;;5026860;28;20692;-83
2022/04/09 13:15:46;;;;;;;1.67;1.03;;;8.30;93.40;;;;;;5021107;28;20177;-82
2022/04/09 13:18:13;;;;;;;1.73;1.10;;;;;;;;;;5019181;28;20210;-82
2022/04/09 13:20:39;;;;;;;4.70;1.93;;;7.90;94.50;;;;;;5018387;28;20195;-82
2022/04/09 13:23:05;;;;;;;3.50;1.73;;;;;;;;;;5018518;28;20262;-82
2022/04/09 13:25:32;;;;;;;4.00;1.40;;;8.70;94.10;;;;;;5018581;28;20179;-82
2022/04/09 13:27:58;;;;;;;3.13;1.30;;;9.20;93.80;;;;;;5019496;28;20662;-82
2022/04/09 13:30:26;;;;;;;5.17;2.67;;;8.80;87.30;;;;;;5018271;28;20289;-82
2022/04/09 13:32:55;;;;;;;4.80;1.57;;;8.50;89.40;;;;;;5022088;28;20204;-82
2022/04/09 13:35:24;;;;;;;4.50;1.80;;;7.60;87.60;;;;;;5018829;28;20175;-83
2022/04/09 13:37:54;;;;;;;2.67;1.90;;;7.60;90.70;;;;;;5017893;28;20191;-82